Weather observations for the past three days for
San Diego, Montgomery Field
| Date | Time (pdt) | Wind (mph) | Vis. (mi.) | Weather | Sky Cond. | Temperature (ºF) | Relative Humidity | Wind Chill (°F) | Heat Index (°F) | Pressure | Precipitation (in) | ||||||
|---|---|---|---|---|---|---|---|---|---|---|---|---|---|---|---|---|---|
| Air | Dwpt | 6 hour | altimeter (in) | sea level (mb) | 1 hr | 3 hr | 6 hr | ||||||||||
| Max. | Min. | ||||||||||||||||
| 04 | 15:53 | W 15 G 21 | 10.00 | Partly Cloudy | SCT034 | 66 | 48.9 | 54% | 29.99 | 1015.1 | |||||||
| 04 | 13:53 | W 9 G 21 | 10.00 | Partly Cloudy | SCT034 | 66 | 48 | 52% | 30.01 | 1016.0 | |||||||
| 04 | 12:53 | W 13 G 18 | 10.00 | A Few Clouds | FEW033 | 66 | 48 | 52% | 30.01 | 1016.0 | |||||||
| 04 | 11:53 | W 12 G 18 | 10.00 | Partly Cloudy | SCT032 | 64 | 48 | 56% | 30.02 | 1016.3 | |||||||
| 04 | 10:53 | W 9 | 10.00 | Partly Cloudy | SCT034 | 64 | 48 | 64.9 | 57.9 | 56% | 30.02 | 1016.4 | |||||
| 04 | 09:53 | W 10 | 10.00 | Mostly Cloudy | BKN026 | 63 | 48.9 | 60% | 30.01 | 1016.0 | |||||||
| 04 | 08:53 | NW 12 | 10.00 | Mostly Cloudy | BKN026 | 62.1 | 48.9 | 62% | 30.01 | 1015.9 | |||||||
| 04 | 07:53 | NW 6 | 10.00 | Partly Cloudy | SCT028 | 61 | 48.9 | 65% | 30 | 1015.6 | |||||||
| 04 | 06:53 | W 5 | 10.00 | Light Rain | SCT025 BKN047 | 59 | 50 | 72% | 29.99 | 1015.4 | |||||||
| 04 | 05:53 | W 5 | 10.00 | Fair | CLR | 59 | 48.9 | 69% | 29.98 | 1015.0 | |||||||
| 04 | 04:53 | W 9 | 10.00 | Partly Cloudy | SCT050 | 59 | 48.9 | 62.1 | 59 | 69% | 29.98 | 1014.8 | |||||
| 04 | 03:53 | W 9 | 10.00 | Overcast | OVC055 | 59 | 48.9 | 69% | 29.98 | 1014.9 | |||||||
| 04 | 02:53 | W 9 | 10.00 | Overcast | SCT036 OVC055 | 60.1 | 48.9 | 67% | 29.97 | 1014.6 | |||||||
| 04 | 01:53 | NW 13 | 10.00 | Mostly Cloudy | BKN055 | 60.1 | 50 | 70% | 29.98 | 1014.9 | |||||||
| 04 | 00:53 | W 10 | 10.00 | Overcast | OVC060 | 60.1 | 52 | 75% | 30 | 1015.7 | |||||||
| 03 | 23:53 | SW 9 | 10.00 | Overcast | SCT020 SCT029 OVC050 | 61 | 52 | 72% | 30.01 | 1015.8 | |||||||
| 03 | 22:53 | W 8 | 10.00 | Overcast | OVC055 | 62.1 | 51.1 | 64.9 | 61 | 67% | 29.98 | 1014.7 | |||||
| 03 | 21:53 | W 6 | 10.00 | Overcast | FEW024 OVC050 | 62.1 | 51.1 | 67% | 29.99 | 1015.2 | |||||||
| 03 | 20:53 | W 5 | 10.00 | Overcast | OVC050 | 62.1 | 51.1 | 67% | 29.96 | 1014.4 | |||||||
| 03 | 19:53 | SW 7 | 10.00 | Overcast | OVC050 | 62.1 | 50 | 65% | 29.96 | 1014.3 | |||||||
| 03 | 18:53 | SW 7 | 10.00 | Overcast | FEW029 OVC048 | 63 | 50 | 63% | 29.96 | 1014.1 | |||||||
| 03 | 17:53 | W 9 | 10.00 | Overcast | OVC041 | 63 | 48 | 58% | 29.94 | 1013.6 | |||||||
| 03 | 16:53 | W 13 | 10.00 | Mostly Cloudy | BKN041 | 64.9 | 48.9 | 68 | 64.9 | 56% | 29.92 | 1012.9 | |||||
| 03 | 15:53 | W 7 | 10.00 | Mostly Cloudy | BKN040 | 66.9 | 46.9 | 49% | 29.93 | 1013.0 | |||||||
| 03 | 14:53 | Vrbl 6 G 22 | 10.00 | Mostly Cloudy | BKN036 BKN047 | 66 | 48 | 52% | 29.94 | 1013.5 | |||||||
| 03 | 13:53 | W 14 G 21 | 10.00 | Overcast | BKN032 OVC041 | 66 | 50 | 56% | 29.95 | 1013.7 | |||||||
| 03 | 12:53 | NW 8 | 10.00 | Overcast | OVC031 | 64.9 | 51.1 | 61% | 29.96 | 1014.2 | |||||||
| 03 | 11:53 | W 12 | 10.00 | Overcast | OVC034 | 64.9 | 51.1 | 61% | 29.96 | 1014.2 | |||||||
| 03 | 10:53 | Vrbl 3 | 10.00 | Mostly Cloudy | FEW028 BKN037 | 66 | 52 | 66.9 | 61 | 61% | 29.96 | 1014.2 | |||||
| 03 | 09:53 | NW 6 | 10.00 | Mostly Cloudy | BKN028 BKN037 | 64.9 | 52 | 63% | 29.96 | 1014.3 | |||||||
| 03 | 08:53 | Calm | 10.00 | Overcast | FEW022 OVC036 | 62.1 | 52 | 70% | 29.95 | 1014.0 | |||||||
| 03 | 07:53 | NW 7 | 10.00 | Overcast | OVC033 | 62.1 | 52 | 70% | 29.95 | 1014.1 | |||||||
| 03 | 06:53 | NW 7 | 10.00 | Overcast | OVC029 | 61 | 53.1 | 75% | 29.94 | 1013.7 | |||||||
| 03 | 05:53 | NW 7 | 10.00 | Overcast | OVC024 | 61 | 53.1 | 75% | 29.92 | 1012.8 | |||||||
| 03 | 04:53 | NW 9 | 10.00 | Overcast | OVC019 | 61 | 53.1 | 61 | 60.1 | 75% | 29.91 | 1012.5 | |||||
| 03 | 03:53 | W 8 | 10.00 | Overcast | OVC017 | 60.1 | 55 | 84% | 29.91 | 1012.6 | |||||||
| 03 | 02:53 | W 6 | 10.00 | Overcast | OVC014 | 61 | 54 | 78% | 29.91 | 1012.5 | |||||||
| 03 | 01:53 | W 3 | 10.00 | Overcast | OVC015 | 61 | 55 | 81% | 29.92 | 1012.8 | |||||||
| 03 | 00:53 | Calm | 10.00 | Overcast | OVC015 | 61 | 54 | 78% | 29.94 | 1013.5 | |||||||
| 02 | 23:53 | W 6 | 10.00 | Overcast | OVC013 | 61 | 54 | 78% | 29.95 | 1013.9 | |||||||
| 02 | 22:53 | Calm | 10.00 | Overcast | OVC009 | 60.1 | 55 | 66.9 | 60.1 | 84% | 29.94 | 1013.7 | |||||
| 02 | 21:53 | W 6 | 10.00 | Mostly Cloudy | BKN010 | 60.1 | 55 | 84% | 29.92 | 1013.0 | |||||||
| 02 | 20:53 | NW 7 | 10.00 | A Few Clouds | FEW011 | 60.1 | 55 | 84% | 29.89 | 1011.8 | |||||||
| 02 | 19:53 | NW 7 | 10.00 | A Few Clouds | FEW012 | 61 | 55 | 81% | 29.87 | 1011.3 | |||||||
| 02 | 18:53 | NW 9 | 10.00 | Fair | CLR | 63 | 55.9 | 78% | 29.87 | 1011.3 | |||||||
| 02 | 17:53 | NW 8 | 10.00 | Fair | CLR | 64 | 55.9 | 75% | 29.86 | 1011.0 | |||||||
| 02 | 16:53 | NW 7 | 10.00 | Fair | CLR | 66 | 55.9 | 69.1 | 64 | 70% | 29.86 | 1010.8 | |||||
| 02 | 15:53 | W 13 | 10.00 | Partly Cloudy | SCT018 | 66.9 | 57 | 71% | 29.87 | 1011.1 | |||||||
| 02 | 14:53 | NW 10 | 10.00 | Partly Cloudy | SCT018 | 69.1 | 57 | 66% | 29.9 | 1012.1 | |||||||
| 02 | 13:53 | W 12 | 10.00 | Fair | CLR | 68 | 57.9 | 70% | 29.91 | 1012.3 | |||||||
| 02 | 12:53 | W 12 G 23 | 10.00 | Mostly Cloudy | BKN016 | 66.9 | 57.9 | 73% | 29.92 | 1012.8 | |||||||
| 02 | 11:53 | W 10 | 10.00 | Overcast | OVC018 | 66.9 | 57.9 | 73% | 29.94 | 1013.5 | |||||||
| 02 | 10:53 | Vrbl 3 | 10.00 | Overcast | OVC015 | 64 | 57 | 64 | 61 | 78% | 29.96 | 1014.2 | |||||
| 02 | 09:53 | Calm | 10.00 | Overcast | OVC012 | 62.1 | 55.9 | 80% | 29.98 | 1014.8 | |||||||
| 02 | 08:53 | NW 5 | 9.00 | Overcast | OVC011 | 62.1 | 57 | 84% | 29.98 | 1014.8 | |||||||
| 02 | 07:53 | Calm | 7.00 | Overcast | OVC011 | 61 | 55.9 | 84% | 29.97 | 1014.6 | |||||||
| 02 | 06:53 | Calm | 9.00 | Overcast | OVC010 | 61 | 55.9 | 84% | 29.96 | 1014.1 | |||||||
| 02 | 05:53 | Calm | 9.00 | Overcast | OVC010 | 61 | 55.9 | 84% | 29.94 | 1013.6 | |||||||
| 02 | 04:53 | Calm | 9.00 | Overcast | OVC012 | 61 | 55.9 | 62.1 | 60.1 | 84% | 29.94 | 1013.4 | |||||
| 02 | 03:53 | Calm | 9.00 | Overcast | OVC012 | 61 | 55.9 | 84% | 29.93 | 1013.2 | |||||||
| 02 | 02:53 | Calm | 9.00 | Overcast | OVC012 | 61 | 55.9 | 84% | 29.93 | 1013.0 | |||||||
| 02 | 01:53 | Calm | 9.00 | Overcast | OVC012 | 61 | 55.9 | 84% | 29.93 | 1013.1 | |||||||
| 02 | 00:53 | NE 3 | 10.00 | Overcast | OVC014 | 61 | 55 | 81% | 29.95 | 1013.9 | |||||||
| 01 | 23:53 | Calm | 9.00 | Mostly Cloudy | BKN013 | 61 | 55 | 81% | 29.95 | 1013.9 | |||||||
| 01 | 22:53 | N 3 | 9.00 | Partly Cloudy | SCT013 | 62.1 | 55.9 | 68 | 61 | 80% | 29.95 | 1013.9 | |||||
| 01 | 21:53 | NW 5 | 10.00 | Fair | CLR | 62.1 | 55.9 | 80% | 29.95 | 1014.0 | |||||||
| 01 | 20:53 | N 5 | 10.00 | Mostly Cloudy | BKN014 | 62.1 | 55.9 | 80% | 29.94 | 1013.6 | |||||||
| 01 | 19:53 | W 6 | 10.00 | A Few Clouds | FEW015 | 62.1 | 55.9 | 80% | 29.93 | 1013.1 | |||||||
| 01 | 18:53 | W 8 | 10.00 | Partly Cloudy | SCT017 | 64 | 55.9 | 75% | 29.91 | 1012.6 | |||||||
| 01 | 17:53 | W 10 G 21 | 10.00 | Fair | CLR | 66 | 55.9 | 70% | 29.9 | 1012.1 | |||||||
| 01 | 16:53 | SW 10 | 10.00 | Fair | CLR | 68 | 55.9 | 71.1 | 64.9 | 65% | 29.89 | 1011.8 | |||||
| Date | Time (pdt) | Wind (mph) | Vis. (mi.) | Weather | Sky Cond. | Air | Dwpt | Max. | Min. | Relative Humidity | Wind Chill (°F) | Heat Index (°F) | altimeter (in) | sea level (mb) | 1 hr | 3 hr | 6 hr |
| 6 hour | |||||||||||||||||
| Temperature (ºF) | Pressure | Precipitation (in) | |||||||||||||||